sensor_id;sensor_type;location;lat;lon;timestamp;P1;durP1;ratioP1;P2;durP2;ratioP2
44822;SDS011;51097;51.984;5.650;2022-10-17T00:00:39;13.43;;;11.25;;
44822;SDS011;51097;51.984;5.650;2022-10-17T00:03:05;12.35;;;10.50;;
44822;SDS011;51097;51.984;5.650;2022-10-17T00:05:31;14.60;;;10.15;;
44822;SDS011;51097;51.984;5.650;2022-10-17T00:07:56;15.93;;;10.85;;
44822;SDS011;51097;51.984;5.650;2022-10-17T00:10:22;15.48;;;10.63;;
44822;SDS011;51097;51.984;5.650;2022-10-17T00:12:49;11.27;;;10.07;;
44822;SDS011;51097;51.984;5.650;2022-10-17T00:15:16;16.35;;;11.23;;
44822;SDS011;51097;51.984;5.650;2022-10-17T00:17:43;15.77;;;11.27;;
44822;SDS011;51097;51.984;5.650;2022-10-17T00:20:09;16.90;;;11.50;;
44822;SDS011;51097;51.984;5.650;2022-10-17T00:22:35;18.60;;;10.60;;
44822;SDS011;51097;51.984;5.650;2022-10-17T00:25:00;12.80;;;11.38;;
44822;SDS011;51097;51.984;5.650;2022-10-17T00:27:26;16.95;;;12.80;;
44822;SDS011;51097;51.984;5.650;2022-10-17T00:29:51;14.45;;;12.73;;
44822;SDS011;51097;51.984;5.650;2022-10-17T00:32:18;13.90;;;12.50;;
44822;SDS011;51097;51.984;5.650;2022-10-17T00:34:44;14.50;;;12.45;;
44822;SDS011;51097;51.984;5.650;2022-10-17T00:37:10;15.50;;;12.52;;
44822;SDS011;51097;51.984;5.650;2022-10-17T00:39:35;20.30;;;12.02;;
44822;SDS011;51097;51.984;5.650;2022-10-17T00:42:01;19.27;;;12.65;;
44822;SDS011;51097;51.984;5.650;2022-10-17T00:46:55;16.20;;;11.32;;
44822;SDS011;51097;51.984;5.650;2022-10-17T00:49:22;12.52;;;11.20;;
44822;SDS011;51097;51.984;5.650;2022-10-17T00:51:54;13.38;;;11.20;;
44822;SDS011;51097;51.984;5.650;2022-10-17T00:54:24;17.13;;;11.43;;
44822;SDS011;51097;51.984;5.650;2022-10-17T00:56:54;13.48;;;11.13;;
44822;SDS011;51097;51.984;5.650;2022-10-17T00:59:21;12.88;;;11.57;;
44822;SDS011;51097;51.984;5.650;2022-10-17T01:01:50;12.82;;;11.38;;
44822;SDS011;51097;51.984;5.650;2022-10-17T01:04:31;12.90;;;11.57;;
44822;SDS011;51097;51.984;5.650;2022-10-17T01:06:57;18.70;;;12.18;;
44822;SDS011;51097;51.984;5.650;2022-10-17T01:09:23;15.68;;;12.50;;
44822;SDS011;51097;51.984;5.650;2022-10-17T01:22:58;16.38;;;12.93;;
44822;SDS011;51097;51.984;5.650;2022-10-17T01:25:48;15.63;;;11.93;;
44822;SDS011;51097;51.984;5.650;2022-10-17T01:31:11;16.83;;;11.80;;
44822;SDS011;51097;51.984;5.650;2022-10-17T01:44:21;18.92;;;12.73;;
44822;SDS011;51097;51.984;5.650;2022-10-17T01:47:09;14.02;;;12.52;;
44822;SDS011;51097;51.984;5.650;2022-10-17T01:49:39;12.55;;;11.25;;
44822;SDS011;51097;51.984;5.650;2022-10-17T01:52:14;16.48;;;11.85;;
44822;SDS011;51097;51.984;5.650;2022-10-17T01:54:44;13.10;;;11.65;;
44822;SDS011;51097;51.984;5.650;2022-10-17T01:57:19;14.68;;;10.32;;
44822;SDS011;51097;51.984;5.650;2022-10-17T01:59:53;15.88;;;11.95;;
44822;SDS011;51097;51.984;5.650;2022-10-17T02:02:20;14.68;;;11.63;;
44822;SDS011;51097;51.984;5.650;2022-10-17T02:04:46;15.88;;;12.38;;
44822;SDS011;51097;51.984;5.650;2022-10-17T02:07:14;16.38;;;12.45;;
44822;SDS011;51097;51.984;5.650;2022-10-17T02:09:41;13.98;;;12.40;;
44822;SDS011;51097;51.984;5.650;2022-10-17T02:25:45;16.50;;;12.40;;
44822;SDS011;51097;51.984;5.650;2022-10-17T02:31:06;13.00;;;11.20;;
44822;SDS011;51097;51.984;5.650;2022-10-17T02:36:12;12.70;;;11.13;;
44822;SDS011;51097;51.984;5.650;2022-10-17T02:38:43;14.55;;;12.30;;
44822;SDS011;51097;51.984;5.650;2022-10-17T02:41:10;17.50;;;12.18;;
44822;SDS011;51097;51.984;5.650;2022-10-17T02:49:33;15.05;;;11.38;;
44822;SDS011;51097;51.984;5.650;2022-10-17T02:51:41;18.20;;;12.03;;
44822;SDS011;51097;51.984;5.650;2022-10-17T02:56:48;14.45;;;12.90;;
44822;SDS011;51097;51.984;5.650;2022-10-17T02:59:17;14.20;;;11.68;;
44822;SDS011;51097;51.984;5.650;2022-10-17T03:01:46;16.15;;;13.35;;
44822;SDS011;51097;51.984;5.650;2022-10-17T03:04:15;16.55;;;13.13;;
44822;SDS011;51097;51.984;5.650;2022-10-17T03:06:42;15.52;;;13.93;;
44822;SDS011;51097;51.984;5.650;2022-10-17T03:09:08;16.40;;;13.35;;
44822;SDS011;51097;51.984;5.650;2022-10-17T03:11:34;13.98;;;12.50;;
44822;SDS011;51097;51.984;5.650;2022-10-17T03:14:00;13.85;;;12.45;;
44822;SDS011;51097;51.984;5.650;2022-10-17T03:16:25;16.73;;;13.38;;
44822;SDS011;51097;51.984;5.650;2022-10-17T03:18:51;14.43;;;12.73;;
44822;SDS011;51097;51.984;5.650;2022-10-17T03:21:16;15.05;;;12.88;;
44822;SDS011;51097;51.984;5.650;2022-10-17T03:23:42;14.30;;;11.88;;
44822;SDS011;51097;51.984;5.650;2022-10-17T03:26:08;15.98;;;12.95;;
44822;SDS011;51097;51.984;5.650;2022-10-17T03:28:34;13.05;;;11.75;;
44822;SDS011;51097;51.984;5.650;2022-10-17T03:31:05;17.80;;;12.15;;
44822;SDS011;51097;51.984;5.650;2022-10-17T03:33:35;15.32;;;12.68;;
44822;SDS011;51097;51.984;5.650;2022-10-17T03:36:09;16.23;;;13.73;;
44822;SDS011;51097;51.984;5.650;2022-10-17T03:38:37;16.38;;;12.80;;
44822;SDS011;51097;51.984;5.650;2022-10-17T03:41:03;14.75;;;13.27;;
44822;SDS011;51097;51.984;5.650;2022-10-17T03:43:29;15.43;;;13.15;;
44822;SDS011;51097;51.984;5.650;2022-10-17T03:45:55;21.10;;;13.25;;
44822;SDS011;51097;51.984;5.650;2022-10-17T03:48:22;14.88;;;12.45;;
44822;SDS011;51097;51.984;5.650;2022-10-17T03:50:47;17.13;;;13.73;;
44822;SDS011;51097;51.984;5.650;2022-10-17T03:53:13;15.70;;;13.98;;
44822;SDS011;51097;51.984;5.650;2022-10-17T03:55:39;15.20;;;13.13;;
44822;SDS011;51097;51.984;5.650;2022-10-17T03:58:04;17.40;;;13.50;;
44822;SDS011;51097;51.984;5.650;2022-10-17T04:00:30;18.70;;;13.63;;
44822;SDS011;51097;51.984;5.650;2022-10-17T04:02:56;14.75;;;12.85;;
44822;SDS011;51097;51.984;5.650;2022-10-17T04:05:22;17.88;;;12.57;;
44822;SDS011;51097;51.984;5.650;2022-10-17T04:07:48;16.10;;;13.10;;
44822;SDS011;51097;51.984;5.650;2022-10-17T04:10:13;14.55;;;13.02;;
44822;SDS011;51097;51.984;5.650;2022-10-17T04:12:39;14.50;;;11.95;;
44822;SDS011;51097;51.984;5.650;2022-10-17T04:15:05;16.13;;;14.40;;
44822;SDS011;51097;51.984;5.650;2022-10-17T04:17:31;14.77;;;12.60;;
44822;SDS011;51097;51.984;5.650;2022-10-17T04:19:57;15.75;;;12.20;;
44822;SDS011;51097;51.984;5.650;2022-10-17T04:22:22;17.38;;;13.30;;
44822;SDS011;51097;51.984;5.650;2022-10-17T04:24:48;18.52;;;13.13;;
44822;SDS011;51097;51.984;5.650;2022-10-17T04:27:13;16.30;;;13.45;;
44822;SDS011;51097;51.984;5.650;2022-10-17T04:29:39;14.88;;;12.40;;
44822;SDS011;51097;51.984;5.650;2022-10-17T04:32:05;14.95;;;12.77;;
44822;SDS011;51097;51.984;5.650;2022-10-17T04:34:31;13.82;;;12.13;;
44822;SDS011;51097;51.984;5.650;2022-10-17T04:36:56;13.80;;;12.45;;
44822;SDS011;51097;51.984;5.650;2022-10-17T04:39:22;17.48;;;12.13;;
44822;SDS011;51097;51.984;5.650;2022-10-17T04:41:48;15.40;;;12.35;;
44822;SDS011;51097;51.984;5.650;2022-10-17T04:44:13;16.00;;;13.15;;
44822;SDS011;51097;51.984;5.650;2022-10-17T04:46:39;17.58;;;14.57;;
44822;SDS011;51097;51.984;5.650;2022-10-17T04:49:04;16.98;;;12.20;;
44822;SDS011;51097;51.984;5.650;2022-10-17T04:51:30;14.25;;;12.80;;
44822;SDS011;51097;51.984;5.650;2022-10-17T04:53:55;14.25;;;12.80;;
44822;SDS011;51097;51.984;5.650;2022-10-17T04:56:22;14.65;;;13.10;;
44822;SDS011;51097;51.984;5.650;2022-10-17T04:58:48;16.75;;;13.50;;
44822;SDS011;51097;51.984;5.650;2022-10-17T05:01:15;16.23;;;13.93;;
44822;SDS011;51097;51.984;5.650;2022-10-17T05:03:43;16.02;;;13.02;;
44822;SDS011;51097;51.984;5.650;2022-10-17T05:06:10;14.48;;;12.98;;
44822;SDS011;51097;51.984;5.650;2022-10-17T05:08:41;13.73;;;12.32;;
44822;SDS011;51097;51.984;5.650;2022-10-17T05:11:17;16.15;;;13.63;;
44822;SDS011;51097;51.984;5.650;2022-10-17T05:13:51;15.35;;;11.43;;
44822;SDS011;51097;51.984;5.650;2022-10-17T05:16:18;14.45;;;12.60;;
44822;SDS011;51097;51.984;5.650;2022-10-17T05:18:46;15.20;;;13.68;;
44822;SDS011;51097;51.984;5.650;2022-10-17T05:21:15;16.40;;;12.90;;
44822;SDS011;51097;51.984;5.650;2022-10-17T05:23:41;22.80;;;13.63;;
44822;SDS011;51097;51.984;5.650;2022-10-17T05:26:07;13.73;;;12.32;;
44822;SDS011;51097;51.984;5.650;2022-10-17T05:28:33;15.93;;;12.68;;
44822;SDS011;51097;51.984;5.650;2022-10-17T05:31:05;17.15;;;12.90;;
44822;SDS011;51097;51.984;5.650;2022-10-17T05:33:31;14.52;;;13.02;;
44822;SDS011;51097;51.984;5.650;2022-10-17T05:35:58;14.23;;;12.77;;
44822;SDS011;51097;51.984;5.650;2022-10-17T05:38:24;13.55;;;12.15;;
44822;SDS011;51097;51.984;5.650;2022-10-17T05:40:50;15.82;;;13.45;;
44822;SDS011;51097;51.984;5.650;2022-10-17T05:43:16;14.25;;;12.75;;
44822;SDS011;51097;51.984;5.650;2022-10-17T05:45:41;14.07;;;12.40;;
44822;SDS011;51097;51.984;5.650;2022-10-17T05:48:07;14.98;;;13.27;;
44822;SDS011;51097;51.984;5.650;2022-10-17T05:50:33;14.50;;;12.10;;
44822;SDS011;51097;51.984;5.650;2022-10-17T05:52:59;15.27;;;12.93;;
44822;SDS011;51097;51.984;5.650;2022-10-17T05:55:25;14.52;;;13.00;;
44822;SDS011;51097;51.984;5.650;2022-10-17T05:57:51;19.38;;;13.75;;
44822;SDS011;51097;51.984;5.650;2022-10-17T06:00:18;16.38;;;13.95;;
44822;SDS011;51097;51.984;5.650;2022-10-17T06:02:44;22.45;;;14.75;;
44822;SDS011;51097;51.984;5.650;2022-10-17T06:05:10;20.63;;;13.52;;
44822;SDS011;51097;51.984;5.650;2022-10-17T06:07:36;19.13;;;13.63;;
44822;SDS011;51097;51.984;5.650;2022-10-17T06:10:02;16.48;;;13.95;;
44822;SDS011;51097;51.984;5.650;2022-10-17T06:12:28;18.10;;;13.80;;
44822;SDS011;51097;51.984;5.650;2022-10-17T06:14:53;16.65;;;13.88;;
44822;SDS011;51097;51.984;5.650;2022-10-17T06:17:19;21.65;;;14.38;;
44822;SDS011;51097;51.984;5.650;2022-10-17T06:19:45;15.13;;;13.35;;
44822;SDS011;51097;51.984;5.650;2022-10-17T06:22:10;15.00;;;13.10;;
44822;SDS011;51097;51.984;5.650;2022-10-17T06:24:36;16.75;;;13.02;;
44822;SDS011;51097;51.984;5.650;2022-10-17T06:27:02;18.42;;;14.55;;
44822;SDS011;51097;51.984;5.650;2022-10-17T06:29:27;19.80;;;14.00;;
44822;SDS011;51097;51.984;5.650;2022-10-17T06:31:53;16.83;;;14.65;;
44822;SDS011;51097;51.984;5.650;2022-10-17T06:34:19;17.92;;;13.38;;
44822;SDS011;51097;51.984;5.650;2022-10-17T06:36:45;16.85;;;14.23;;
44822;SDS011;51097;51.984;5.650;2022-10-17T06:39:11;17.23;;;13.52;;
44822;SDS011;51097;51.984;5.650;2022-10-17T06:41:37;15.10;;;13.55;;
44822;SDS011;51097;51.984;5.650;2022-10-17T06:44:04;15.48;;;12.93;;
44822;SDS011;51097;51.984;5.650;2022-10-17T06:46:34;16.20;;;13.00;;
44822;SDS011;51097;51.984;5.650;2022-10-17T06:49:03;15.30;;;13.70;;
44822;SDS011;51097;51.984;5.650;2022-10-17T06:51:30;17.88;;;14.60;;
44822;SDS011;51097;51.984;5.650;2022-10-17T06:53:56;17.77;;;13.63;;
44822;SDS011;51097;51.984;5.650;2022-10-17T06:56:22;19.30;;;13.65;;
44822;SDS011;51097;51.984;5.650;2022-10-17T06:58:48;14.43;;;12.82;;
44822;SDS011;51097;51.984;5.650;2022-10-17T07:01:15;20.13;;;14.07;;
44822;SDS011;51097;51.984;5.650;2022-10-17T07:03:41;15.23;;;13.63;;
44822;SDS011;51097;51.984;5.650;2022-10-17T07:06:10;18.55;;;13.35;;
44822;SDS011;51097;51.984;5.650;2022-10-17T07:08:35;14.75;;;12.95;;
44822;SDS011;51097;51.984;5.650;2022-10-17T07:11:08;21.00;;;13.98;;
44822;SDS011;51097;51.984;5.650;2022-10-17T07:13:38;14.18;;;12.68;;
44822;SDS011;51097;51.984;5.650;2022-10-17T07:16:03;15.20;;;13.60;;
44822;SDS011;51097;51.984;5.650;2022-10-17T07:18:29;19.52;;;12.48;;
44822;SDS011;51097;51.984;5.650;2022-10-17T07:20:55;14.73;;;13.00;;
44822;SDS011;51097;51.984;5.650;2022-10-17T07:23:21;14.82;;;12.90;;
44822;SDS011;51097;51.984;5.650;2022-10-17T07:25:47;17.30;;;13.25;;
44822;SDS011;51097;51.984;5.650;2022-10-17T07:28:13;18.17;;;12.43;;
44822;SDS011;51097;51.984;5.650;2022-10-17T07:30:39;16.92;;;12.93;;
44822;SDS011;51097;51.984;5.650;2022-10-17T07:33:05;18.95;;;13.55;;
44822;SDS011;51097;51.984;5.650;2022-10-17T07:35:31;14.00;;;12.60;;
44822;SDS011;51097;51.984;5.650;2022-10-17T07:37:56;14.82;;;13.13;;
44822;SDS011;51097;51.984;5.650;2022-10-17T07:40:22;15.02;;;12.77;;
44822;SDS011;51097;51.984;5.650;2022-10-17T07:42:47;15.10;;;11.93;;
44822;SDS011;51097;51.984;5.650;2022-10-17T07:45:13;14.75;;;11.60;;
44822;SDS011;51097;51.984;5.650;2022-10-17T07:47:39;13.00;;;11.18;;
44822;SDS011;51097;51.984;5.650;2022-10-17T07:50:05;14.35;;;12.07;;
44822;SDS011;51097;51.984;5.650;2022-10-17T07:52:31;15.75;;;13.20;;
44822;SDS011;51097;51.984;5.650;2022-10-17T07:54:57;13.32;;;11.85;;
44822;SDS011;51097;51.984;5.650;2022-10-17T07:57:22;18.05;;;13.85;;
44822;SDS011;51097;51.984;5.650;2022-10-17T07:59:48;16.17;;;13.38;;
44822;SDS011;51097;51.984;5.650;2022-10-17T08:02:24;14.38;;;12.65;;
44822;SDS011;51097;51.984;5.650;2022-10-17T08:04:51;15.82;;;12.38;;
44822;SDS011;51097;51.984;5.650;2022-10-17T08:07:17;19.70;;;12.38;;
44822;SDS011;51097;51.984;5.650;2022-10-17T08:09:43;17.25;;;13.02;;
44822;SDS011;51097;51.984;5.650;2022-10-17T08:12:09;17.83;;;13.25;;
44822;SDS011;51097;51.984;5.650;2022-10-17T08:14:36;16.58;;;12.15;;
44822;SDS011;51097;51.984;5.650;2022-10-17T08:17:03;15.68;;;12.65;;
44822;SDS011;51097;51.984;5.650;2022-10-17T08:19:28;15.88;;;12.10;;
44822;SDS011;51097;51.984;5.650;2022-10-17T08:21:54;15.73;;;12.20;;
44822;SDS011;51097;51.984;5.650;2022-10-17T08:24:20;14.77;;;11.35;;
44822;SDS011;51097;51.984;5.650;2022-10-17T08:26:45;16.27;;;10.90;;
44822;SDS011;51097;51.984;5.650;2022-10-17T08:29:12;17.27;;;12.60;;
44822;SDS011;51097;51.984;5.650;2022-10-17T08:31:38;18.15;;;11.35;;
44822;SDS011;51097;51.984;5.650;2022-10-17T08:34:03;16.48;;;10.85;;
44822;SDS011;51097;51.984;5.650;2022-10-17T08:36:29;11.80;;;10.38;;
44822;SDS011;51097;51.984;5.650;2022-10-17T08:38:54;15.68;;;11.73;;
44822;SDS011;51097;51.984;5.650;2022-10-17T08:41:34;13.20;;;11.65;;
44822;SDS011;51097;51.984;5.650;2022-10-17T08:47:00;15.63;;;11.15;;
44822;SDS011;51097;51.984;5.650;2022-10-17T08:49:40;12.13;;;10.75;;
44822;SDS011;51097;51.984;5.650;2022-10-17T08:52:54;17.63;;;12.15;;
44822;SDS011;51097;51.984;5.650;2022-10-17T08:55:20;16.33;;;12.50;;
44822;SDS011;51097;51.984;5.650;2022-10-17T08:57:47;12.33;;;10.67;;
44822;SDS011;51097;51.984;5.650;2022-10-17T09:00:17;17.05;;;12.13;;
44822;SDS011;51097;51.984;5.650;2022-10-17T09:05:30;13.73;;;11.20;;
44822;SDS011;51097;51.984;5.650;2022-10-17T09:11:21;16.67;;;11.27;;
44822;SDS011;51097;51.984;5.650;2022-10-17T09:19:35;14.20;;;11.38;;
44822;SDS011;51097;51.984;5.650;2022-10-17T09:22:18;17.48;;;11.90;;
44822;SDS011;51097;51.984;5.650;2022-10-17T09:24:51;13.43;;;11.68;;
44822;SDS011;51097;51.984;5.650;2022-10-17T09:27:23;12.85;;;11.20;;
44822;SDS011;51097;51.984;5.650;2022-10-17T09:32:59;18.10;;;12.45;;
44822;SDS011;51097;51.984;5.650;2022-10-17T09:35:30;13.15;;;11.77;;
44822;SDS011;51097;51.984;5.650;2022-10-17T09:37:56;13.48;;;12.05;;
44822;SDS011;51097;51.984;5.650;2022-10-17T09:40:27;18.63;;;12.88;;
44822;SDS011;51097;51.984;5.650;2022-10-17T09:42:57;18.83;;;12.35;;
44822;SDS011;51097;51.984;5.650;2022-10-17T09:45:25;14.65;;;12.43;;
44822;SDS011;51097;51.984;5.650;2022-10-17T09:50:34;19.13;;;12.85;;
44822;SDS011;51097;51.984;5.650;2022-10-17T09:53:01;16.98;;;12.27;;
44822;SDS011;51097;51.984;5.650;2022-10-17T09:55:37;15.98;;;12.73;;
44822;SDS011;51097;51.984;5.650;2022-10-17T09:58:09;16.25;;;12.45;;
44822;SDS011;51097;51.984;5.650;2022-10-17T10:00:37;14.55;;;13.07;;
44822;SDS011;51097;51.984;5.650;2022-10-17T10:08:56;19.50;;;14.48;;
44822;SDS011;51097;51.984;5.650;2022-10-17T10:11:25;16.02;;;14.38;;
44822;SDS011;51097;51.984;5.650;2022-10-17T10:17:01;15.80;;;12.85;;
44822;SDS011;51097;51.984;5.650;2022-10-17T10:19:33;19.50;;;13.10;;
44822;SDS011;51097;51.984;5.650;2022-10-17T10:22:03;14.02;;;11.85;;
44822;SDS011;51097;51.984;5.650;2022-10-17T10:24:39;12.25;;;10.45;;
44822;SDS011;51097;51.984;5.650;2022-10-17T10:27:05;9.80;;;8.90;;
44822;SDS011;51097;51.984;5.650;2022-10-17T10:29:41;10.98;;;9.80;;
44822;SDS011;51097;51.984;5.650;2022-10-17T10:32:30;10.10;;;9.10;;
44822;SDS011;51097;51.984;5.650;2022-10-17T10:37:55;10.60;;;9.45;;
44822;SDS011;51097;51.984;5.650;2022-10-17T10:40:26;11.98;;;9.60;;
44822;SDS011;51097;51.984;5.650;2022-10-17T10:42:59;13.93;;;9.10;;
44822;SDS011;51097;51.984;5.650;2022-10-17T10:45:38;10.93;;;9.15;;
44822;SDS011;51097;51.984;5.650;2022-10-17T10:48:22;13.70;;;9.27;;
44822;SDS011;51097;51.984;5.650;2022-10-17T10:51:01;12.90;;;9.57;;
44822;SDS011;51097;51.984;5.650;2022-10-17T10:53:53;13.40;;;8.63;;
44822;SDS011;51097;51.984;5.650;2022-10-17T10:56:27;11.60;;;9.07;;
44822;SDS011;51097;51.984;5.650;2022-10-17T11:04:39;9.02;;;7.88;;
44822;SDS011;51097;51.984;5.650;2022-10-17T11:07:14;12.07;;;9.18;;
44822;SDS011;51097;51.984;5.650;2022-10-17T11:12:47;10.43;;;8.13;;
44822;SDS011;51097;51.984;5.650;2022-10-17T11:15:29;11.23;;;9.38;;
44822;SDS011;51097;51.984;5.650;2022-10-17T11:18:21;9.68;;;8.32;;
44822;SDS011;51097;51.984;5.650;2022-10-17T11:21:01;10.20;;;7.85;;
44822;SDS011;51097;51.984;5.650;2022-10-17T11:23:46;10.38;;;9.15;;
44822;SDS011;51097;51.984;5.650;2022-10-17T11:26:18;9.85;;;8.90;;
44822;SDS011;51097;51.984;5.650;2022-10-17T11:28:55;12.02;;;9.07;;
44822;SDS011;51097;51.984;5.650;2022-10-17T11:31:28;12.18;;;9.02;;
44822;SDS011;51097;51.984;5.650;2022-10-17T11:34:01;12.00;;;8.85;;
44822;SDS011;51097;51.984;5.650;2022-10-17T11:37:04;13.30;;;9.63;;
44822;SDS011;51097;51.984;5.650;2022-10-17T11:39:45;15.60;;;9.65;;
44822;SDS011;51097;51.984;5.650;2022-10-17T11:42:14;12.65;;;9.75;;
44822;SDS011;51097;51.984;5.650;2022-10-17T11:44:45;11.23;;;9.35;;
44822;SDS011;51097;51.984;5.650;2022-10-17T11:47:28;11.05;;;9.23;;
44822;SDS011;51097;51.984;5.650;2022-10-17T11:50:23;12.05;;;10.80;;
44822;SDS011;51097;51.984;5.650;2022-10-17T11:53:02;12.80;;;9.95;;
44822;SDS011;51097;51.984;5.650;2022-10-17T11:55:36;11.48;;;10.30;;
44822;SDS011;51097;51.984;5.650;2022-10-17T12:07:03;11.27;;;10.02;;
44822;SDS011;51097;51.984;5.650;2022-10-17T12:09:46;11.20;;;10.02;;
44822;SDS011;51097;51.984;5.650;2022-10-17T12:12:29;13.18;;;10.80;;
44822;SDS011;51097;51.984;5.650;2022-10-17T12:17:43;13.93;;;11.43;;
44822;SDS011;51097;51.984;5.650;2022-10-17T12:23:35;16.10;;;11.15;;
44822;SDS011;51097;51.984;5.650;2022-10-17T12:25:36;15.40;;;11.27;;
44822;SDS011;51097;51.984;5.650;2022-10-17T12:28:13;13.75;;;11.32;;
44822;SDS011;51097;51.984;5.650;2022-10-17T12:30:49;13.07;;;11.15;;
44822;SDS011;51097;51.984;5.650;2022-10-17T12:44:34;11.75;;;10.55;;
44822;SDS011;51097;51.984;5.650;2022-10-17T12:49:49;12.07;;;9.60;;
44822;SDS011;51097;51.984;5.650;2022-10-17T13:00:42;12.98;;;9.25;;
44822;SDS011;51097;51.984;5.650;2022-10-17T13:02:51;10.93;;;9.80;;
44822;SDS011;51097;51.984;5.650;2022-10-17T13:07:48;12.07;;;10.02;;
44822;SDS011;51097;51.984;5.650;2022-10-17T13:10:21;12.65;;;9.98;;
44822;SDS011;51097;51.984;5.650;2022-10-17T13:12:49;12.82;;;11.45;;
44822;SDS011;51097;51.984;5.650;2022-10-17T13:15:18;11.77;;;10.18;;
44822;SDS011;51097;51.984;5.650;2022-10-17T13:17:44;13.02;;;10.45;;
44822;SDS011;51097;51.984;5.650;2022-10-17T13:20:20;13.10;;;10.98;;
44822;SDS011;51097;51.984;5.650;2022-10-17T13:22:49;11.70;;;10.70;;
44822;SDS011;51097;51.984;5.650;2022-10-17T13:25:15;13.95;;;10.85;;
44822;SDS011;51097;51.984;5.650;2022-10-17T13:27:43;11.60;;;10.50;;
44822;SDS011;51097;51.984;5.650;2022-10-17T13:30:25;12.55;;;11.20;;
44822;SDS011;51097;51.984;5.650;2022-10-17T13:32:53;12.93;;;11.73;;
44822;SDS011;51097;51.984;5.650;2022-10-17T13:35:32;12.75;;;11.43;;
44822;SDS011;51097;51.984;5.650;2022-10-17T13:38:00;20.02;;;12.95;;
44822;SDS011;51097;51.984;5.650;2022-10-17T13:40:29;13.57;;;12.05;;
44822;SDS011;51097;51.984;5.650;2022-10-17T13:42:56;13.73;;;11.07;;
44822;SDS011;51097;51.984;5.650;2022-10-17T13:47:57;13.88;;;12.45;;
44822;SDS011;51097;51.984;5.650;2022-10-17T13:50:27;15.05;;;11.32;;
44822;SDS011;51097;51.984;5.650;2022-10-17T13:58:41;13.88;;;12.50;;
44822;SDS011;51097;51.984;5.650;2022-10-17T14:01:15;13.57;;;12.15;;
44822;SDS011;51097;51.984;5.650;2022-10-17T14:03:42;12.77;;;11.60;;
44822;SDS011;51097;51.984;5.650;2022-10-17T14:06:12;12.93;;;11.68;;
44822;SDS011;51097;51.984;5.650;2022-10-17T14:08:45;13.85;;;12.65;;
44822;SDS011;51097;51.984;5.650;2022-10-17T14:13:56;14.73;;;11.77;;
44822;SDS011;51097;51.984;5.650;2022-10-17T14:16:23;14.05;;;11.90;;
44822;SDS011;51097;51.984;5.650;2022-10-17T14:18:51;13.75;;;12.35;;
44822;SDS011;51097;51.984;5.650;2022-10-17T14:21:24;14.50;;;13.00;;
44822;SDS011;51097;51.984;5.650;2022-10-17T14:24:10;14.02;;;12.35;;
44822;SDS011;51097;51.984;5.650;2022-10-17T14:26:49;15.60;;;12.20;;
44822;SDS011;51097;51.984;5.650;2022-10-17T14:29:23;13.00;;;11.82;;
44822;SDS011;51097;51.984;5.650;2022-10-17T14:31:57;11.77;;;10.65;;
44822;SDS011;51097;51.984;5.650;2022-10-17T14:34:33;12.60;;;11.40;;
44822;SDS011;51097;51.984;5.650;2022-10-17T14:37:01;12.80;;;11.30;;
44822;SDS011;51097;51.984;5.650;2022-10-17T14:39:36;15.32;;;12.77;;
44822;SDS011;51097;51.984;5.650;2022-10-17T14:42:02;13.65;;;12.25;;
44822;SDS011;51097;51.984;5.650;2022-10-17T14:44:29;13.20;;;11.77;;
44822;SDS011;51097;51.984;5.650;2022-10-17T14:47:01;12.55;;;11.35;;
44822;SDS011;51097;51.984;5.650;2022-10-17T14:49:34;12.57;;;11.38;;
44822;SDS011;51097;51.984;5.650;2022-10-17T14:52:35;12.85;;;11.38;;
44822;SDS011;51097;51.984;5.650;2022-10-17T14:54:55;17.65;;;12.23;;
44822;SDS011;51097;51.984;5.650;2022-10-17T15:00:04;12.20;;;11.00;;
44822;SDS011;51097;51.984;5.650;2022-10-17T15:02:30;13.88;;;11.40;;
44822;SDS011;51097;51.984;5.650;2022-10-17T15:04:56;15.18;;;10.40;;
44822;SDS011;51097;51.984;5.650;2022-10-17T15:07:21;12.70;;;11.02;;
44822;SDS011;51097;51.984;5.650;2022-10-17T15:09:48;13.52;;;10.27;;
44822;SDS011;51097;51.984;5.650;2022-10-17T15:12:16;12.52;;;11.23;;
44822;SDS011;51097;51.984;5.650;2022-10-17T15:14:44;12.20;;;10.98;;
44822;SDS011;51097;51.984;5.650;2022-10-17T15:17:15;12.00;;;10.60;;
44822;SDS011;51097;51.984;5.650;2022-10-17T15:19:47;11.93;;;10.82;;
44822;SDS011;51097;51.984;5.650;2022-10-17T15:22:14;12.57;;;11.38;;
44822;SDS011;51097;51.984;5.650;2022-10-17T15:24:40;12.10;;;11.00;;
44822;SDS011;51097;51.984;5.650;2022-10-17T15:27:06;13.60;;;12.18;;
44822;SDS011;51097;51.984;5.650;2022-10-17T15:30:00;14.30;;;12.98;;
44822;SDS011;51097;51.984;5.650;2022-10-17T15:32:26;15.57;;;13.98;;
44822;SDS011;51097;51.984;5.650;2022-10-17T15:34:52;13.10;;;11.68;;
44822;SDS011;51097;51.984;5.650;2022-10-17T15:37:22;14.45;;;12.98;;
44822;SDS011;51097;51.984;5.650;2022-10-17T15:39:49;14.85;;;13.35;;
44822;SDS011;51097;51.984;5.650;2022-10-17T15:42:20;14.90;;;13.20;;
44822;SDS011;51097;51.984;5.650;2022-10-17T15:44:47;15.23;;;13.63;;
44822;SDS011;51097;51.984;5.650;2022-10-17T15:47:17;15.63;;;14.02;;
44822;SDS011;51097;51.984;5.650;2022-10-17T15:49:47;16.92;;;14.02;;
44822;SDS011;51097;51.984;5.650;2022-10-17T15:52:12;16.80;;;15.07;;
44822;SDS011;51097;51.984;5.650;2022-10-17T15:54:38;18.58;;;16.77;;
44822;SDS011;51097;51.984;5.650;2022-10-17T15:57:03;21.80;;;18.65;;
44822;SDS011;51097;51.984;5.650;2022-10-17T15:59:31;20.23;;;18.17;;
44822;SDS011;51097;51.984;5.650;2022-10-17T16:01:58;21.80;;;17.85;;
44822;SDS011;51097;51.984;5.650;2022-10-17T16:04:24;19.25;;;16.08;;
44822;SDS011;51097;51.984;5.650;2022-10-17T16:06:51;17.85;;;16.10;;
44822;SDS011;51097;51.984;5.650;2022-10-17T16:09:17;20.58;;;17.10;;
44822;SDS011;51097;51.984;5.650;2022-10-17T16:11:42;19.65;;;17.60;;
44822;SDS011;51097;51.984;5.650;2022-10-17T16:14:13;20.05;;;17.92;;
44822;SDS011;51097;51.984;5.650;2022-10-17T16:16:40;20.98;;;18.90;;
44822;SDS011;51097;51.984;5.650;2022-10-17T16:19:06;20.73;;;18.73;;
44822;SDS011;51097;51.984;5.650;2022-10-17T16:21:32;19.52;;;17.73;;
44822;SDS011;51097;51.984;5.650;2022-10-17T16:24:00;20.80;;;18.70;;
44822;SDS011;51097;51.984;5.650;2022-10-17T16:26:26;19.40;;;17.55;;
44822;SDS011;51097;51.984;5.650;2022-10-17T16:28:52;17.90;;;16.05;;
44822;SDS011;51097;51.984;5.650;2022-10-17T16:31:23;20.13;;;17.67;;
44822;SDS011;51097;51.984;5.650;2022-10-17T16:33:52;19.95;;;17.95;;
44822;SDS011;51097;51.984;5.650;2022-10-17T16:36:19;20.15;;;17.25;;
44822;SDS011;51097;51.984;5.650;2022-10-17T16:38:45;21.95;;;19.83;;
44822;SDS011;51097;51.984;5.650;2022-10-17T16:43:49;22.08;;;19.73;;
44822;SDS011;51097;51.984;5.650;2022-10-17T16:46:15;26.15;;;20.60;;
44822;SDS011;51097;51.984;5.650;2022-10-17T16:48:42;22.50;;;20.15;;
44822;SDS011;51097;51.984;5.650;2022-10-17T16:51:09;24.65;;;21.40;;
44822;SDS011;51097;51.984;5.650;2022-10-17T16:53:35;24.40;;;21.25;;
44822;SDS011;51097;51.984;5.650;2022-10-17T16:56:04;23.67;;;20.23;;
44822;SDS011;51097;51.984;5.650;2022-10-17T16:58:30;23.98;;;21.38;;
44822;SDS011;51097;51.984;5.650;2022-10-17T17:01:00;23.60;;;21.20;;
44822;SDS011;51097;51.984;5.650;2022-10-17T17:03:27;25.90;;;21.33;;
44822;SDS011;51097;51.984;5.650;2022-10-17T17:06:00;25.95;;;23.15;;